Time;durP1;ratioP1;P1;durP2;ratioP2;P2;SDS_P1;SDS_P2;PMS_P1;PMS_P2;Temp;Humidity;BMP_temperature;BMP_pressure;BME280_temperature;BME280_humidity;BME280_pressure;Samples;Min_cycle;Max_cycle;Signal;HPM_P1;HPM_P2
2023/04/01 00:01:31;;;;;;;2.20;0.90;;;10.10;99.90;;;;;;4977434;28;20109;-86
2023/04/01 00:03:58;;;;;;;2.00;0.65;;;10.10;99.90;;;;;;4978752;28;20045;-86
2023/04/01 00:06:26;;;;;;;3.95;0.85;;;10.10;99.90;;;;;;5001125;28;20482;-86
2023/04/01 00:08:56;;;;;;;4.38;0.80;;;10.10;99.90;;;;;;4973167;28;20050;-86
2023/04/01 00:11:28;;;;;;;2.70;0.70;;;10.10;99.90;;;;;;4983946;28;20045;-91
2023/04/01 00:13:59;;;;;;;1.92;0.80;;;10.10;99.90;;;;;;4988887;28;20858;-91
2023/04/01 00:16:26;;;;;;;2.45;0.90;;;10.10;99.90;;;;;;5006192;28;20052;-91
2023/04/01 00:19:03;;;;;;;2.00;0.57;;;10.10;99.90;;;;;;4963816;28;20042;-91
2023/04/01 00:21:30;;;;;;;2.17;0.77;;;10.10;99.90;;;;;;4978970;28;20041;-91
2023/04/01 00:24:00;;;;;;;2.53;0.80;;;10.10;99.90;;;;;;4967117;28;20080;-91
2023/04/01 00:26:30;;;;;;;2.13;0.70;;;10.10;99.90;;;;;;4983947;28;20041;-91
2023/04/01 00:28:59;;;;;;;3.50;0.73;;;10.10;99.90;;;;;;4989015;28;20109;-92
2023/04/01 00:31:30;;;;;;;2.75;0.75;;;10.10;99.90;;;;;;5014981;28;20070;-91
2023/04/01 00:33:58;;;;;;;2.42;0.70;;;10.10;99.90;;;;;;5008948;28;20064;-92
2023/04/01 00:36:26;;;;;;;2.90;0.95;;;10.10;99.90;;;;;;4997841;28;20137;-90
2023/04/01 00:38:59;;;;;;;3.10;1.37;;;10.10;99.90;;;;;;4988444;28;20047;-91
2023/04/01 00:41:30;;;;;;;3.45;1.00;;;10.10;99.90;;;;;;5004941;28;20296;-91
2023/04/01 00:44:21;;;;;;;2.72;0.73;;;10.10;99.90;;;;;;4987439;28;20085;-91
2023/04/01 00:46:49;;;;;;;2.55;1.08;;;10.10;99.90;;;;;;5003773;28;20042;-91
2023/04/01 00:49:18;;;;;;;2.08;1.00;;;10.10;99.90;;;;;;5003680;28;20050;-92
2023/04/01 00:51:53;;;;;;;3.33;1.13;;;10.10;99.90;;;;;;4987540;28;20046;-91
2023/04/01 00:54:24;;;;;;;3.70;1.67;;;10.10;99.90;;;;;;5003409;28;20041;-92
2023/04/01 00:56:59;;;;;;;2.72;1.33;;;10.10;99.90;;;;;;5003406;28;20489;-92
2023/04/01 00:59:39;;;;;;;3.30;2.10;;;10.10;99.90;;;;;;4970106;28;20069;-91
2023/04/01 01:02:10;;;;;;;4.93;1.60;;;10.10;99.90;;;;;;5003290;28;20490;-91
2023/04/01 01:04:43;;;;;;;4.70;2.75;;;10.10;99.90;;;;;;5006741;28;20053;-92
2023/04/01 01:07:29;;;;;;;5.32;1.92;;;10.10;99.90;;;;;;5002783;28;20080;-91
2023/04/01 01:10:23;;;;;;;7.53;3.10;;;10.10;99.90;;;;;;5003351;28;20414;-91
2023/04/01 01:13:07;;;;;;;5.03;2.83;;;10.10;99.90;;;;;;5003537;28;20046;-91
2023/04/01 01:15:37;;;;;;;5.30;2.97;;;10.20;99.90;;;;;;4987220;28;20046;-92
2023/04/01 01:18:35;;;;;;;5.90;2.60;;;10.20;99.90;;;;;;4983111;28;20179;-87
2023/04/01 01:21:25;;;;;;;8.20;3.28;;;10.20;99.90;;;;;;4990676;28;20072;-86
2023/04/01 01:24:13;;;;;;;9.35;4.88;;;10.20;99.90;;;;;;4981674;28;20045;-86
2023/04/01 01:26:48;;;;;;;7.28;4.38;;;10.20;99.90;;;;;;5001665;28;20096;-86
2023/04/01 01:30:09;;;;;;;7.07;4.00;;;10.20;99.90;;;;;;4985617;28;20069;-86
2023/04/01 01:33:07;;;;;;;8.65;4.70;;;10.20;99.90;;;;;;4904831;29;20580;-87
2023/04/01 01:35:43;;;;;;;6.55;3.70;;;10.20;99.90;;;;;;5009521;28;20510;-87
2023/04/01 01:38:20;;;;;;;6.80;4.53;;;10.20;99.90;;;;;;4999159;28;20068;-87
2023/04/01 01:41:00;;;;;;;6.55;4.05;;;10.20;99.90;;;;;;5002077;28;20565;-86
2023/04/01 01:43:54;;;;;;;9.57;4.03;;;10.20;99.90;;;;;;4992063;28;20551;-87
2023/04/01 01:46:25;;;;;;;8.70;5.28;;;10.20;99.90;;;;;;4983052;28;20136;-87
2023/04/01 01:48:59;;;;;;;10.50;5.45;;;10.20;99.90;;;;;;4983556;28;20045;-87
2023/04/01 01:51:30;;;;;;;7.55;5.20;;;10.20;99.90;;;;;;4998986;28;20042;-87
2023/04/01 01:54:00;;;;;;;9.65;5.68;;;10.20;99.90;;;;;;4999016;28;20077;-87
2023/04/01 01:56:36;;;;;;;9.45;5.43;;;10.20;99.90;;;;;;4998660;28;20406;-88
2023/04/01 01:59:24;;;;;;;10.52;6.25;;;10.20;99.90;;;;;;4998576;28;20038;-87
2023/04/01 02:01:56;;;;;;;11.50;6.80;;;10.20;99.90;;;;;;4982490;28;20050;-87
2023/04/01 02:04:43;;;;;;;10.20;5.82;;;10.20;99.90;;;;;;4977471;28;20046;-87
2023/04/01 02:07:28;;;;;;;9.73;5.82;;;10.20;99.90;;;;;;4982268;28;20144;-87
2023/04/01 02:10:14;;;;;;;10.95;6.05;;;10.20;99.90;;;;;;4987421;28;20052;-87
2023/04/01 02:12:46;;;;;;;15.45;6.05;;;10.10;99.90;;;;;;4996605;28;20498;-87
2023/04/01 02:15:16;;;;;;;11.13;4.93;;;10.10;99.90;;;;;;4979206;28;20521;-87
2023/04/01 02:17:53;;;;;;;10.82;4.25;;;10.10;99.90;;;;;;4963173;28;20046;-87
2023/04/01 02:20:23;;;;;;;11.77;4.82;;;10.00;99.90;;;;;;4978157;28;20070;-87
2023/04/01 02:23:19;;;;;;;9.73;3.85;;;10.00;99.90;;;;;;4968865;28;20049;-87
2023/04/01 02:26:16;;;;;;;11.18;3.83;;;10.00;99.90;;;;;;4978963;28;20086;-87
2023/04/01 02:28:45;;;;;;;8.10;3.17;;;10.00;99.90;;;;;;4996865;28;20046;-87
2023/04/01 02:31:19;;;;;;;7.28;3.42;;;10.00;99.90;;;;;;4998895;28;20132;-92
2023/04/01 02:33:57;;;;;;;7.35;2.42;;;10.00;99.90;;;;;;4998528;28;20046;-87
2023/04/01 02:36:28;;;;;;;6.13;3.40;;;10.00;99.90;;;;;;5002924;28;20132;-87
2023/04/01 02:39:08;;;;;;;8.00;3.15;;;10.00;99.90;;;;;;5010698;28;20046;-87
2023/04/01 02:41:44;;;;;;;10.45;4.47;;;10.00;99.90;;;;;;4982063;28;20046;-87
2023/04/01 02:44:15;;;;;;;10.23;3.65;;;10.00;99.90;;;;;;4997792;28;20148;-87
2023/04/01 02:46:46;;;;;;;7.28;3.03;;;9.90;99.90;;;;;;4981791;28;20049;-85
2023/04/01 02:49:14;;;;;;;10.50;3.78;;;9.90;99.90;;;;;;4981917;28;20060;-86
2023/04/01 02:51:42;;;;;;;9.50;3.65;;;10.00;99.90;;;;;;5003201;28;20048;-87
2023/04/01 02:54:30;;;;;;;9.23;3.80;;;10.00;99.90;;;;;;4983571;28;20046;-86
2023/04/01 02:57:08;;;;;;;8.82;3.10;;;9.90;99.90;;;;;;5003206;28;20045;-86
2023/04/01 02:59:35;;;;;;;6.95;3.40;;;9.90;99.90;;;;;;4981447;28;20042;-86
2023/04/01 03:02:07;;;;;;;8.43;2.88;;;9.90;99.90;;;;;;4997275;28;20140;-86
2023/04/01 03:04:34;;;;;;;;;;;9.90;99.90;;;;;;4991011;28;20050;-87
2023/04/01 03:07:12;;;;;;;5.57;2.50;;;9.90;99.90;;;;;;4981811;28;19921;-87
2023/04/01 03:09:39;;;;;;;7.05;3.10;;;9.90;99.90;;;;;;4994173;28;20495;-86
2023/04/01 03:12:07;;;;;;;5.72;2.80;;;9.90;99.90;;;;;;4982008;28;20109;-91
2023/04/01 03:14:47;;;;;;;6.03;2.33;;;9.90;99.90;;;;;;4965634;28;20065;-91
2023/04/01 03:17:17;;;;;;;3.95;1.75;;;9.90;99.90;;;;;;4978573;28;20078;-90
2023/04/01 03:19:50;;;;;;;4.70;2.05;;;9.90;99.90;;;;;;4978423;28;20136;-91
2023/04/01 03:22:20;;;;;;;5.80;2.55;;;9.90;99.90;;;;;;4997825;28;20073;-90
2023/04/01 03:24:48;;;;;;;4.32;2.47;;;9.90;99.90;;;;;;4981740;28;20153;-90
2023/04/01 03:27:16;;;;;;;3.60;1.70;;;9.90;99.90;;;;;;4981700;28;20046;-90
2023/04/01 03:29:46;;;;;;;3.78;1.95;;;9.80;99.90;;;;;;4975028;28;20052;-90
2023/04/01 03:32:19;;;;;;;3.72;1.65;;;9.90;99.90;;;;;;4997573;28;20057;-89
2023/04/01 03:34:46;;;;;;;4.65;2.20;;;9.90;99.90;;;;;;4965939;28;20049;-88
2023/04/01 03:37:14;;;;;;;4.47;2.03;;;9.90;99.90;;;;;;4997144;28;20050;-88
2023/04/01 03:39:41;;;;;;;5.45;2.53;;;9.90;99.90;;;;;;4980850;28;20084;-88
2023/04/01 03:42:10;;;;;;;6.43;2.78;;;9.80;99.90;;;;;;4979581;28;20383;-88
2023/04/01 03:44:38;;;;;;;6.45;3.53;;;9.80;99.90;;;;;;4963253;28;20063;-88
2023/04/01 03:47:05;;;;;;;4.35;2.15;;;9.80;99.90;;;;;;4954786;28;20046;-87
2023/04/01 03:49:35;;;;;;;5.13;2.63;;;9.80;99.90;;;;;;4952437;28;20101;-88
2023/04/01 03:52:10;;;;;;;5.80;2.95;;;9.80;99.90;;;;;;4974933;28;20065;-88
2023/04/01 03:54:37;;;;;;;6.33;2.90;;;9.80;99.90;;;;;;4961296;28;20457;-88
2023/04/01 03:57:05;;;;;;;6.30;2.42;;;9.80;99.90;;;;;;4961832;28;20294;-88
2023/04/01 03:59:35;;;;;;;5.97;2.55;;;9.80;99.90;;;;;;4942665;28;20050;-88
2023/04/01 04:02:05;;;;;;;3.97;2.17;;;9.80;99.90;;;;;;4937391;28;20047;-88
2023/04/01 04:04:33;;;;;;;4.50;2.80;;;9.80;99.90;;;;;;4948328;28;20054;-88
2023/04/01 04:07:01;;;;;;;5.70;3.25;;;9.80;99.90;;;;;;4977744;28;20046;-88
2023/04/01 04:09:36;;;;;;;7.45;3.45;;;9.80;99.90;;;;;;4962494;28;20518;-88
2023/04/01 04:12:05;;;;;;;6.45;3.15;;;9.80;99.90;;;;;;4949174;28;20142;-88
2023/04/01 04:14:35;;;;;;;6.28;2.90;;;9.80;99.90;;;;;;4961680;28;20050;-88
2023/04/01 04:17:05;;;;;;;5.40;3.08;;;9.70;99.90;;;;;;4962010;28;20046;-89
2023/04/01 04:19:34;;;;;;;6.30;3.47;;;9.80;99.90;;;;;;4977665;28;20053;-89
2023/04/01 04:22:09;;;;;;;5.80;3.33;;;9.70;99.90;;;;;;4964603;28;20046;-88
2023/04/01 04:24:37;;;;;;;5.70;3.30;;;9.70;99.90;;;;;;4976338;28;20053;-89
2023/04/01 04:27:12;;;;;;;6.68;3.65;;;9.70;99.90;;;;;;4981732;28;20050;-89
2023/04/01 04:30:07;;;;;;;8.00;3.83;;;9.70;99.90;;;;;;4964623;28;20070;-89
2023/04/01 04:33:26;;;;;;;7.32;4.15;;;9.70;99.90;;;;;;4957213;28;20051;-89
2023/04/01 04:36:50;;;;;;;8.18;4.20;;;9.70;99.90;;;;;;4958816;28;20097;-89
2023/04/01 04:39:19;;;;;;;8.35;4.32;;;9.70;99.90;;;;;;4953605;29;20476;-89
2023/04/01 04:41:52;;;;;;;6.28;4.10;;;9.70;99.90;;;;;;4953526;28;20097;-89
2023/04/01 04:44:36;;;;;;;10.07;6.00;;;9.60;99.90;;;;;;4972042;28;20064;-89
2023/04/01 04:47:12;;;;;;;8.13;4.35;;;9.60;99.90;;;;;;4973911;28;20081;-90
2023/04/01 04:49:42;;;;;;;9.23;5.45;;;9.60;99.90;;;;;;4955042;28;20141;-90
2023/04/01 04:52:41;;;;;;;9.45;5.18;;;9.60;99.90;;;;;;4952871;28;20062;-90
2023/04/01 04:55:10;;;;;;;7.22;4.93;;;9.60;99.90;;;;;;4977995;28;20038;-89
2023/04/01 04:57:38;;;;;;;8.57;4.97;;;9.70;99.90;;;;;;4992365;28;20057;-89
2023/04/01 05:00:12;;;;;;;9.20;5.38;;;9.70;99.90;;;;;;4995185;28;20049;-89
2023/04/01 05:03:07;;;;;;;12.05;6.18;;;9.70;99.90;;;;;;4983441;28;20522;-88
2023/04/01 05:05:39;;;;;;;9.55;6.20;;;9.60;99.90;;;;;;4967562;28;20050;-89
2023/04/01 05:08:06;;;;;;;8.52;5.57;;;9.60;99.90;;;;;;4971671;28;20533;-88
2023/04/01 05:10:35;;;;;;;10.50;5.53;;;9.70;99.90;;;;;;5006641;28;20470;-87
2023/04/01 05:13:02;;;;;;;8.32;5.32;;;9.60;99.90;;;;;;4998880;28;20054;-88
2023/04/01 05:15:31;;;;;;;9.32;5.78;;;9.70;99.90;;;;;;4961420;28;20043;-88
2023/04/01 05:18:01;;;;;;;8.48;5.13;;;9.70;99.90;;;;;;4985651;28;20099;-89
2023/04/01 05:20:29;;;;;;;10.32;5.82;;;9.70;99.90;;;;;;4993973;28;20057;-87
2023/04/01 05:23:03;;;;;;;8.73;5.40;;;9.70;99.90;;;;;;4991171;28;20049;-88
2023/04/01 05:25:37;;;;;;;8.65;5.30;;;9.70;99.90;;;;;;4980728;28;20049;-89
2023/04/01 05:32:07;;;;;;;8.60;4.80;;;9.70;99.90;;;;;;5004294;28;20049;-89
2023/04/01 05:34:45;;;;;;;9.20;4.95;;;9.80;99.90;;;;;;5000992;28;20080;-89
2023/04/01 05:37:13;;;;;;;7.00;4.15;;;9.80;99.90;;;;;;4978475;28;20053;-88
2023/04/01 05:39:40;;;;;;;7.40;4.45;;;9.80;99.90;;;;;;4998577;28;20042;-88
2023/04/01 05:42:09;;;;;;;6.35;3.47;;;9.80;99.90;;;;;;4976649;28;20094;-89
2023/04/01 05:44:38;;;;;;;7.47;3.70;;;9.80;99.90;;;;;;4988623;28;20057;-89
2023/04/01 05:47:25;;;;;;;6.47;3.35;;;9.80;99.90;;;;;;5022287;28;20413;-89
2023/04/01 05:49:55;;;;;;;5.38;2.85;;;9.80;99.90;;;;;;5006815;28;20054;-89
2023/04/01 05:52:22;;;;;;;3.85;2.03;;;9.90;99.90;;;;;;4983593;28;20061;-89
2023/04/01 05:54:50;;;;;;;4.30;2.17;;;9.90;99.90;;;;;;4999339;28;20070;-89
2023/04/01 05:57:17;;;;;;;3.90;1.50;;;9.90;99.90;;;;;;4995828;28;20048;-89
2023/04/01 05:59:50;;;;;;;3.88;1.60;;;9.90;99.90;;;;;;4997799;28;20494;-91
2023/04/01 06:02:24;;;;;;;3.92;1.58;;;10.00;99.90;;;;;;4983652;28;20038;-87
2023/04/01 06:05:19;;;;;;;5.47;2.17;;;10.00;99.90;;;;;;4997004;28;20453;-86
2023/04/01 06:07:47;;;;;;;;;;;10.00;99.90;;;;;;5005322;28;20057;-86
2023/04/01 06:10:24;;;;;;;4.70;2.22;;;9.90;99.90;;;;;;4982091;28;19925;-87
2023/04/01 06:13:20;;;;;;;5.03;2.38;;;9.90;99.90;;;;;;4998980;28;20133;-87
2023/04/01 06:15:50;;;;;;;7.50;2.88;;;10.00;99.90;;;;;;4982514;28;20409;-86
2023/04/01 06:18:37;;;;;;;6.65;3.05;;;9.90;99.90;;;;;;4982367;28;20046;-86
2023/04/01 06:21:29;;;;;;;8.65;3.53;;;10.00;99.90;;;;;;4981926;28;20132;-86
2023/04/01 06:24:14;;;;;;;8.32;3.35;;;10.00;99.90;;;;;;4981768;28;20042;-86
2023/04/01 06:27:22;;;;;;;7.00;3.20;;;10.00;99.90;;;;;;4997374;28;20104;-85
2023/04/01 06:30:23;;;;;;;9.05;3.40;;;10.00;99.90;;;;;;4981505;28;20046;-86
2023/04/01 06:33:23;;;;;;;10.13;3.78;;;10.10;99.90;;;;;;4989222;28;20140;-86
2023/04/01 06:36:02;;;;;;;9.93;3.97;;;10.10;99.90;;;;;;4979843;28;20502;-86
2023/04/01 06:39:03;;;;;;;9.18;3.55;;;10.10;99.90;;;;;;4981767;28;20104;-86
2023/04/01 06:41:52;;;;;;;9.75;3.58;;;10.10;99.90;;;;;;4971841;28;20096;-86
2023/04/01 06:45:09;;;;;;;6.78;2.72;;;10.10;99.90;;;;;;4978136;28;20132;-86
2023/04/01 06:47:54;;;;;;;10.00;4.65;;;10.20;99.90;;;;;;4973884;28;20061;-86
2023/04/01 06:51:34;;;;;;;11.75;3.72;;;10.20;99.90;;;;;;4962881;28;20498;-85
2023/04/01 06:54:39;;;;;;;9.32;3.85;;;10.30;99.90;;;;;;4991501;28;20108;-85
2023/04/01 06:57:37;;;;;;;8.68;3.03;;;10.20;99.90;;;;;;4964784;28;20125;-85
2023/04/01 07:00:34;;;;;;;7.95;2.95;;;10.30;99.90;;;;;;4978467;28;20077;-85
2023/04/01 07:03:18;;;;;;;8.68;3.60;;;10.20;99.90;;;;;;4967078;28;20038;-85
2023/04/01 07:05:46;;;;;;;7.45;2.80;;;10.20;99.90;;;;;;4963956;28;20085;-86
2023/04/01 07:08:23;;;;;;;8.20;2.92;;;10.20;99.90;;;;;;4968826;28;20101;-86
2023/04/01 07:11:17;;;;;;;6.03;2.15;;;10.20;99.90;;;;;;4969192;28;20050;-87
2023/04/01 07:14:28;;;;;;;7.72;2.25;;;10.30;99.90;;;;;;4972193;28;20521;-86
2023/04/01 07:17:01;;;;;;;5.65;1.88;;;10.30;99.90;;;;;;4964894;28;20046;-86
2023/04/01 07:19:56;;;;;;;5.35;1.80;;;10.30;99.90;;;;;;4972435;28;20047;-85
2023/04/01 07:22:35;;;;;;;7.03;2.05;;;10.30;99.90;;;;;;4967416;28;20054;-85
2023/04/01 07:25:28;;;;;;;;;;;10.40;99.90;;;;;;4980303;28;20136;-85
2023/04/01 07:28:21;;;;;;;3.28;1.30;;;10.40;99.90;;;;;;4982542;28;19972;-86
2023/04/01 07:31:12;;;;;;;4.72;1.27;;;10.40;99.90;;;;;;4979072;28;20061;-86
2023/04/01 07:34:10;;;;;;;3.55;1.23;;;10.50;99.90;;;;;;4972986;28;20118;-86
2023/04/01 07:36:44;;;;;;;3.25;0.80;;;10.50;99.90;;;;;;4953637;28;20050;-86
2023/04/01 07:39:37;;;;;;;3.20;0.98;;;10.50;99.90;;;;;;4976897;28;20042;-85
2023/04/01 07:42:38;;;;;;;2.30;0.75;;;10.50;99.90;;;;;;4978326;28;20399;-85
2023/04/01 07:45:31;;;;;;;1.77;0.77;;;10.60;99.90;;;;;;4986284;28;20467;-86
2023/04/01 07:48:17;;;;;;;1.63;0.55;;;10.60;99.90;;;;;;4980032;28;20120;-85
2023/04/01 07:50:53;;;;;;;2.05;0.80;;;10.70;99.90;;;;;;5003618;28;20052;-86
2023/04/01 07:53:39;;;;;;;1.40;0.40;;;10.70;99.90;;;;;;4983072;28;20050;-86
2023/04/01 07:56:14;;;;;;;1.45;0.55;;;10.90;99.90;;;;;;4983996;28;20449;-86
2023/04/01 07:59:14;;;;;;;1.80;0.60;;;10.90;99.90;;;;;;4996111;28;20568;-86
2023/04/01 08:02:32;;;;;;;1.58;0.52;;;11.00;99.90;;;;;;4997052;28;20524;-86
2023/04/01 08:05:19;;;;;;;1.95;0.60;;;11.00;99.90;;;;;;4987352;28;20521;-85
2023/04/01 08:08:08;;;;;;;1.70;0.60;;;11.00;99.90;;;;;;4980069;28;20069;-86
2023/04/01 08:11:14;;;;;;;2.05;0.52;;;11.00;99.90;;;;;;4998865;28;20060;-85
2023/04/01 08:14:28;;;;;;;1.30;0.50;;;11.00;99.90;;;;;;4994636;28;20061;-85
2023/04/01 08:17:44;;;;;;;1.88;0.60;;;11.10;99.90;;;;;;5005089;28;20050;-85
2023/04/01 08:20:21;;;;;;;2.05;0.60;;;11.20;99.90;;;;;;4989328;28;20132;-85
2023/04/01 08:23:00;;;;;;;1.58;0.43;;;11.30;99.90;;;;;;4983153;28;20074;-85
2023/04/01 08:25:40;;;;;;;1.38;0.50;;;11.30;99.90;;;;;;4985838;28;20128;-84
2023/04/01 08:28:28;;;;;;;1.50;0.50;;;11.30;99.90;;;;;;4980642;28;20521;-84
2023/04/01 08:31:16;;;;;;;1.15;0.40;;;11.30;99.90;;;;;;4996159;28;20042;-85
2023/04/01 08:33:47;;;;;;;1.40;0.43;;;11.40;99.90;;;;;;4976240;28;20044;-83
2023/04/01 08:36:28;;;;;;;1.23;0.50;;;11.30;99.90;;;;;;5007518;28;20049;-85
2023/04/01 08:39:21;;;;;;;1.50;0.40;;;11.30;99.90;;;;;;4993637;28;20405;-83
2023/04/01 08:42:18;;;;;;;1.30;0.50;;;11.30;99.90;;;;;;4980327;28;20402;-83
2023/04/01 08:45:17;;;;;;;1.23;0.43;;;11.30;99.90;;;;;;4965993;28;20057;-85
2023/04/01 08:47:52;;;;;;;0.95;0.38;;;11.30;99.90;;;;;;4975834;28;20078;-82
2023/04/01 08:50:57;;;;;;;1.77;0.40;;;11.20;99.90;;;;;;5002491;28;20057;-82
2023/04/01 08:53:46;;;;;;;1.20;0.30;;;11.20;99.90;;;;;;4998893;28;20046;-82
2023/04/01 08:56:42;;;;;;;0.60;0.17;;;11.20;99.90;;;;;;4994210;28;20100;-82
2023/04/01 08:59:52;;;;;;;0.77;0.38;;;11.20;99.90;;;;;;4978322;28;20058;-83
2023/04/01 09:02:47;;;;;;;0.57;0.20;;;11.30;99.90;;;;;;4972488;28;20199;-83
2023/04/01 09:05:22;;;;;;;;;;;11.20;99.90;;;;;;4999385;28;20041;-83
2023/04/01 09:08:20;;;;;;;0.65;0.20;;;11.20;99.90;;;;;;4992420;28;19921;-83
2023/04/01 09:11:17;;;;;;;0.55;0.20;;;11.20;99.90;;;;;;5009232;28;20093;-83
2023/04/01 09:14:13;;;;;;;0.40;0.20;;;11.30;99.90;;;;;;4949769;28;20058;-82
2023/04/01 09:16:56;;;;;;;2.60;0.38;;;11.30;99.90;;;;;;4983042;28;20053;-83
2023/04/01 09:19:45;;;;;;;0.90;0.30;;;11.30;99.90;;;;;;4976169;28;20049;-83
2023/04/01 09:22:22;;;;;;;0.90;0.17;;;11.30;99.90;;;;;;4971534;28;20038;-82
2023/04/01 09:25:00;;;;;;;0.70;0.30;;;11.30;99.90;;;;;;4998718;28;20445;-82
2023/04/01 09:27:34;;;;;;;0.30;0.10;;;11.40;99.90;;;;;;4989233;28;20494;-82
2023/04/01 09:30:19;;;;;;;1.33;0.20;;;11.40;99.90;;;;;;5000200;28;20042;-83
2023/04/01 09:33:16;;;;;;;0.60;0.20;;;11.50;99.90;;;;;;4990643;28;20050;-83
2023/04/01 09:36:09;;;;;;;0.93;0.20;;;11.40;99.90;;;;;;4970302;28;20457;-83
2023/04/01 09:39:03;;;;;;;1.05;0.30;;;11.50;99.90;;;;;;4983187;28;20052;-82
2023/04/01 09:42:15;;;;;;;1.00;0.30;;;11.50;99.90;;;;;;4998608;28;20100;-83
2023/04/01 09:45:07;;;;;;;1.33;0.55;;;11.50;99.90;;;;;;4998165;28;20049;-82
2023/04/01 09:47:42;;;;;;;1.10;0.40;;;11.50;99.90;;;;;;5017661;28;20080;-81
2023/04/01 09:50:17;;;;;;;1.73;0.60;;;11.40;99.90;;;;;;5003172;28;20046;-82
2023/04/01 09:52:52;;;;;;;1.48;0.55;;;11.40;99.90;;;;;;4998596;28;20486;-83
2023/04/01 09:56:01;;;;;;;1.75;0.60;;;11.30;99.90;;;;;;4998570;28;20054;-82
2023/04/01 09:59:01;;;;;;;2.05;0.77;;;11.30;99.90;;;;;;4982821;28;20054;-84
2023/04/01 10:01:55;;;;;;;1.65;0.52;;;11.20;99.90;;;;;;5008633;28;20140;-84
2023/04/01 10:04:52;;;;;;;0.70;0.30;;;11.10;99.90;;;;;;5000133;28;20050;-85
2023/04/01 10:07:43;;;;;;;1.30;0.60;;;11.10;99.90;;;;;;4985777;28;20046;-82
2023/04/01 10:10:29;;;;;;;1.70;0.88;;;11.10;99.90;;;;;;4990333;28;20038;-83
2023/04/01 10:13:59;;;;;;;;;;;;;;;;;;;;;
2023/04/01 10:16:35;;;;;;;1.42;0.40;;;11.10;99.90;;;;;;4998275;28;20053;-83
2023/04/01 10:19:29;;;;;;;2.28;0.73;;;11.10;99.90;;;;;;5003214;28;20042;-83
2023/04/01 10:22:12;;;;;;;1.50;0.60;;;11.20;99.90;;;;;;4969310;28;20037;-83
2023/04/01 10:25:27;;;;;;;2.05;0.90;;;11.20;99.90;;;;;;4996525;28;20402;-83
2023/04/01 10:28:36;;;;;;;3.25;1.17;;;11.20;99.90;;;;;;4976235;28;20076;-87
2023/04/01 10:31:56;;;;;;;2.83;0.98;;;11.20;99.90;;;;;;4996649;28;20129;-84
2023/04/01 10:34:48;;;;;;;1.90;0.60;;;11.30;99.90;;;;;;4978246;28;20090;-84
2023/04/01 10:37:37;;;;;;;2.90;1.00;;;11.30;99.90;;;;;;4973714;28;20138;-84
2023/04/01 10:40:42;;;;;;;2.85;1.00;;;11.30;99.90;;;;;;4981782;28;20054;-84
2023/04/01 10:43:37;;;;;;;2.60;1.10;;;11.40;99.90;;;;;;4992400;28;20054;-83
2023/04/01 10:46:31;;;;;;;3.20;1.40;;;11.60;99.90;;;;;;4963093;28;20046;-85
2023/04/01 10:49:24;;;;;;;2.78;1.13;;;11.80;99.90;;;;;;4982641;28;20073;-85
2023/04/01 10:52:57;;;;;;;3.05;1.40;;;12.10;99.90;;;;;;5001256;28;20046;-85
2023/04/01 10:56:54;;;;;;;3.00;1.10;;;12.20;99.90;;;;;;4952694;28;20056;-85
2023/04/01 10:59:55;;;;;;;3.70;1.58;;;12.10;99.90;;;;;;4905771;29;20485;-85
2023/04/01 11:03:26;;;;;;;4.13;1.58;;;12.00;99.90;;;;;;4941566;29;20062;-85
2023/04/01 11:07:02;;;;;;;3.25;1.45;;;11.90;99.90;;;;;;4938726;29;20077;-85
2023/04/01 11:14:08;;;;;;;4.55;2.60;;;11.90;99.90;;;;;;4919095;29;20048;-84
2023/04/01 11:17:11;;;;;;;4.63;1.98;;;11.90;99.90;;;;;;4952269;28;20052;-87
2023/04/01 11:19:47;;;;;;;;;;;11.90;99.90;;;;;;4920478;29;20055;-90
2023/04/01 11:22:44;;;;;;;4.05;1.58;;;11.90;99.90;;;;;;4992836;28;19928;-87
2023/04/01 11:25:52;;;;;;;5.22;2.10;;;11.90;99.90;;;;;;4984920;28;20054;-86
2023/04/01 11:29:41;;;;;;;4.38;2.17;;;11.80;99.90;;;;;;4954279;29;20412;-88
2023/04/01 11:33:13;;;;;;;4.25;1.85;;;11.70;99.90;;;;;;4926764;29;20107;-86
2023/04/01 11:35:50;;;;;;;3.03;1.20;;;11.60;99.90;;;;;;4968420;28;20046;-87
2023/04/01 11:38:29;;;;;;;3.88;1.10;;;11.60;99.90;;;;;;4996710;28;20139;-85
2023/04/01 11:41:21;;;;;;;1.83;0.50;;;11.50;99.90;;;;;;4996247;28;20107;-87
2023/04/01 11:44:43;;;;;;;1.30;0.50;;;11.40;99.90;;;;;;4988726;28;20417;-86
2023/04/01 11:47:51;;;;;;;1.60;0.40;;;11.30;99.90;;;;;;4995236;28;20119;-85
2023/04/01 11:50:58;;;;;;;1.30;0.30;;;11.30;99.90;;;;;;4977704;28;20095;-85
2023/04/01 11:53:40;;;;;;;1.23;0.50;;;11.30;99.90;;;;;;4979692;28;20050;-86
2023/04/01 11:56:42;;;;;;;0.73;0.35;;;11.20;99.90;;;;;;4993242;28;20112;-83
2023/04/01 11:59:54;;;;;;;1.70;0.80;;;11.10;99.90;;;;;;4984279;28;20048;-84
2023/04/01 12:02:55;;;;;;;5.22;1.30;;;11.10;99.90;;;;;;5008701;28;20449;-85
2023/04/01 12:05:42;;;;;;;6.05;2.25;;;11.10;99.90;;;;;;4985876;28;20108;-84
2023/04/01 12:08:29;;;;;;;6.43;2.28;;;11.10;99.90;;;;;;4970702;28;20818;-85
2023/04/01 12:11:22;;;;;;;5.90;1.45;;;11.10;99.90;;;;;;4996255;28;20141;-86
2023/04/01 12:13:57;;;;;;;5.90;2.30;;;11.10;99.90;;;;;;4981273;28;20042;-87
2023/04/01 12:16:47;;;;;;;12.98;5.85;;;11.10;99.90;;;;;;5000905;28;20050;-88
2023/04/01 12:19:35;;;;;;;14.38;6.65;;;11.10;99.90;;;;;;5013236;28;20140;-86
2023/04/01 12:22:11;;;;;;;10.07;5.00;;;11.10;99.90;;;;;;5012338;28;20050;-87
2023/04/01 12:25:09;;;;;;;8.65;3.88;;;11.10;99.90;;;;;;4997078;28;20092;-87
2023/04/01 12:27:40;;;;;;;7.68;3.20;;;11.10;99.90;;;;;;4996000;28;20077;-89
2023/04/01 12:30:32;;;;;;;5.00;2.30;;;11.10;99.90;;;;;;4996618;28;20485;-91
2023/04/01 12:33:35;;;;;;;5.05;2.40;;;11.10;99.90;;;;;;4996770;28;20104;-90
2023/04/01 12:36:39;;;;;;;4.28;1.48;;;11.10;99.90;;;;;;4996108;28;20080;-91
2023/04/01 12:39:09;;;;;;;3.30;0.98;;;11.20;99.90;;;;;;4980222;28;20053;-89
2023/04/01 12:42:40;;;;;;;2.13;1.00;;;11.20;99.90;;;;;;4980536;28;20048;-89
2023/04/01 12:45:31;;;;;;;3.42;1.27;;;11.20;99.90;;;;;;4977007;28;20070;-89
2023/04/01 12:48:41;;;;;;;2.63;0.90;;;11.30;99.90;;;;;;4976987;28;20053;-88
2023/04/01 12:51:22;;;;;;;2.45;0.98;;;11.40;99.90;;;;;;4965488;28;20050;-87
2023/04/01 12:54:22;;;;;;;1.52;0.60;;;11.40;99.90;;;;;;4977030;28;20141;-89
2023/04/01 12:57:06;;;;;;;1.48;0.50;;;11.50;99.90;;;;;;4972526;28;20070;-88
2023/04/01 12:59:34;;;;;;;;;;;11.50;99.90;;;;;;4961053;28;20054;-87
2023/04/01 13:02:41;;;;;;;0.80;0.40;;;11.60;99.90;;;;;;4961359;28;19922;-89
2023/04/01 13:05:30;;;;;;;0.90;0.40;;;11.60;99.90;;;;;;4974003;28;20053;-89
2023/04/01 13:08:06;;;;;;;0.90;0.38;;;11.70;99.90;;;;;;4944538;28;20451;-89
2023/04/01 13:11:00;;;;;;;1.05;0.50;;;11.60;99.90;;;;;;4972001;28;20044;-89
2023/04/01 13:14:29;;;;;;;0.80;0.35;;;11.70;99.90;;;;;;4948778;28;20053;-86
2023/04/01 13:17:27;;;;;;;0.88;0.38;;;11.80;99.90;;;;;;4903314;29;20083;-89
2023/04/01 13:20:28;;;;;;;1.50;0.60;;;11.90;99.90;;;;;;4932483;28;20058;-89
2023/04/01 13:23:07;;;;;;;1.35;0.40;;;11.90;99.90;;;;;;5009205;28;20043;-87
2023/04/01 13:25:59;;;;;;;1.85;0.80;;;11.90;99.90;;;;;;4976914;28;20053;-88
2023/04/01 13:28:58;;;;;;;1.27;0.50;;;12.00;99.90;;;;;;4962167;28;20483;-91
2023/04/01 13:32:00;;;;;;;0.82;0.30;;;12.10;99.90;;;;;;4968190;28;20043;-90
2023/04/01 13:34:39;;;;;;;1.17;0.40;;;12.20;99.90;;;;;;4972909;28;20042;-90
2023/04/01 13:37:25;;;;;;;1.00;0.40;;;12.20;99.90;;;;;;4975923;28;20046;-86
2023/04/01 13:40:04;;;;;;;0.80;0.25;;;12.20;99.90;;;;;;4979680;28;20054;-88
2023/04/01 13:42:49;;;;;;;1.10;0.30;;;12.10;99.90;;;;;;4979884;28;20069;-87
2023/04/01 13:45:26;;;;;;;2.10;0.25;;;12.10;99.90;;;;;;4997244;28;20054;-88
2023/04/01 13:48:50;;;;;;;0.40;0.20;;;12.00;99.90;;;;;;4977969;28;20156;-88
2023/04/01 13:51:47;;;;;;;0.57;0.20;;;11.80;99.90;;;;;;4918152;29;20573;-86
2023/04/01 13:54:36;;;;;;;0.17;0.08;;;11.60;99.90;;;;;;4966563;28;20133;-87
2023/04/01 13:57:22;;;;;;;0.35;0.20;;;11.60;99.90;;;;;;4995479;28;20050;-88
2023/04/01 14:00:22;;;;;;;0.17;0.10;;;11.50;99.90;;;;;;4963732;28;20498;-87
2023/04/01 14:02:57;;;;;;;0.43;0.10;;;11.50;99.90;;;;;;4986261;28;20125;-89
2023/04/01 14:05:32;;;;;;;0.47;0.17;;;11.50;99.90;;;;;;4988897;28;20517;-86
2023/04/01 14:08:30;;;;;;;0.38;0.10;;;11.50;99.90;;;;;;4965196;28;20054;-89
2023/04/01 14:11:30;;;;;;;0.22;0.10;;;11.60;99.90;;;;;;4995091;28;20050;-87
2023/04/01 14:14:26;;;;;;;0.20;0.10;;;11.60;99.90;;;;;;4979627;28;20046;-88
2023/04/01 14:17:46;;;;;;;1.10;0.10;;;11.70;99.90;;;;;;4963198;28;20074;-87
2023/04/01 14:20:27;;;;;;;0.10;0.10;;;11.70;99.90;;;;;;4967929;28;20042;-87
2023/04/01 14:23:18;;;;;;;0.30;0.10;;;11.80;99.90;;;;;;4978319;28;20049;-83
2023/04/01 14:26:25;;;;;;;0.98;0.22;;;11.80;99.90;;;;;;5002185;28;20096;-83
2023/04/01 14:29:12;;;;;;;0.80;0.20;;;11.90;99.90;;;;;;4966368;28;20042;-83
2023/04/01 14:31:50;;;;;;;0.40;0.03;;;11.90;99.90;;;;;;4964736;28;20050;-86
2023/04/01 14:34:58;;;;;;;0.77;0.30;;;11.90;99.90;;;;;;4962802;28;20137;-87